Time;durP1;ratioP1;P1;durP2;ratioP2;P2;SDS_P1;SDS_P2;PMS_P1;PMS_P2;Temp;Humidity;BMP_temperature;BMP_pressure;BME280_temperature;BME280_humidity;BME280_pressure;Samples;Min_cycle;Max_cycle;Signal;HPM_P1;HPM_P2
2022/06/22 00:01:50;;;;;;;10.23;7.40;;;;;;;15.17;73.20;101333.38;5028302;28;20370;-69
2022/06/22 00:04:41;;;;;;;10.85;7.75;;;;;;;15.24;72.88;101339.69;5016477;28;20029;-70
2022/06/22 00:07:12;;;;;;;11.77;8.20;;;;;;;15.08;74.22;101336.84;5026868;28;20461;-69
2022/06/22 00:09:40;;;;;;;10.40;8.07;;;;;;;15.03;74.24;101339.09;5027473;28;20033;-69
2022/06/22 00:12:17;;;;;;;8.57;7.67;;;;;;;15.06;74.03;101344.00;5026525;28;20393;-69
2022/06/22 00:14:46;;;;;;;11.25;7.97;;;;;;;14.94;74.33;101335.50;5026436;28;20607;-69
2022/06/22 00:17:21;;;;;;;12.80;8.57;;;;;;;14.81;75.11;101330.59;5027226;28;20037;-69
2022/06/22 00:19:47;;;;;;;10.60;7.60;;;;;;;14.97;74.86;101337.84;5027247;28;20544;-69
2022/06/22 00:22:18;;;;;;;11.07;8.13;;;;;;;14.95;74.95;101331.94;5025542;28;20112;-69
2022/06/22 00:24:44;;;;;;;11.13;8.32;;;;;;;15.01;74.92;101338.38;5028000;28;20373;-69
2022/06/22 00:27:18;;;;;;;10.45;8.27;;;;;;;14.90;75.48;101326.31;5027647;28;20495;-69
2022/06/22 00:29:45;;;;;;;10.55;8.52;;;;;;;14.82;75.74;101327.03;5026522;28;20072;-69
2022/06/22 00:32:26;;;;;;;10.93;7.95;;;;;;;14.86;75.68;101315.34;5009746;28;20053;-69
2022/06/22 00:34:52;;;;;;;14.10;8.85;;;;;;;14.83;75.91;101302.53;5026116;28;20083;-69
2022/06/22 00:37:36;;;;;;;12.57;8.82;;;;;;;14.87;75.87;101308.31;5026529;28;20029;-69
2022/06/22 00:40:13;;;;;;;11.77;9.15;;;;;;;14.87;75.73;101300.50;5026928;28;20525;-69
2022/06/22 00:42:43;;;;;;;10.85;8.05;;;;;;;14.80;75.88;101313.28;5020615;28;20092;-69
2022/06/22 00:45:23;;;;;;;11.75;8.63;;;;;;;14.76;76.10;101296.25;5027944;28;20087;-69
2022/06/22 00:48:05;;;;;;;12.15;8.43;;;;;;;14.85;75.55;101299.78;5019645;28;20083;-69
2022/06/22 00:50:43;;;;;;;13.50;8.77;;;;;;;14.75;76.60;101305.06;5027251;28;20037;-69
2022/06/22 00:53:18;;;;;;;11.10;8.80;;;;;;;14.76;76.70;101311.09;5007449;28;21046;-69
2022/06/22 00:56:48;;;;;;;13.38;8.80;;;;;;;14.84;75.70;101298.97;5026862;28;20707;-69
2022/06/22 00:59:16;;;;;;;11.85;8.93;;;;;;;14.68;77.04;101301.38;4995031;28;20029;-70
2022/06/22 01:01:52;;;;;;;12.65;8.50;;;;;;;14.76;76.35;101306.69;4984882;28;20081;-69
2022/06/22 01:04:58;;;;;;;11.68;8.60;;;;;;;14.66;76.97;101300.66;4977273;28;20029;-68
2022/06/22 01:07:41;;;;;;;12.80;8.98;;;;;;;14.50;77.99;101295.19;4982963;28;20072;-69
2022/06/22 01:10:28;;;;;;;10.30;8.70;;;;;;;14.55;77.34;101290.38;4985011;28;20130;-69
2022/06/22 01:13:24;;;;;;;12.95;9.10;;;;;;;14.52;77.47;101288.06;4968033;28;20034;-69
2022/06/22 01:15:57;;;;;;;12.52;9.27;;;;;;;14.41;77.90;101286.38;4984158;28;20034;-69
2022/06/22 01:18:46;;;;;;;11.68;9.20;;;;;;;14.35;78.58;101286.94;4987246;28;20423;-69
2022/06/22 01:21:19;;;;;;;14.02;9.25;;;;;;;14.40;78.41;101289.13;4986492;28;20037;-69
2022/06/22 01:23:47;;;;;;;14.25;9.77;;;;;;;14.51;77.72;101296.84;4983637;28;20046;-69
2022/06/22 01:26:33;;;;;;;14.70;9.32;;;;;;;14.37;78.52;101305.06;4984384;28;20062;-69
2022/06/22 01:29:27;;;;;;;12.32;9.48;;;;;;;14.40;78.42;101299.56;5082040;28;20393;-68
2022/06/22 01:32:06;;;;;;;12.93;9.38;;;;;;;14.49;78.14;101301.38;5070178;28;20130;-68
2022/06/22 01:34:55;;;;;;;12.48;9.40;;;;;;;14.50;77.69;101301.22;5054356;28;20105;-69
2022/06/22 01:37:24;;;;;;;12.25;9.15;;;;;;;14.44;78.31;101300.91;5049912;28;20051;-68
2022/06/22 01:39:50;;;;;;;13.85;9.65;;;;;;;14.33;77.95;101294.88;5062360;28;20032;-68
2022/06/22 01:42:24;;;;;;;13.32;9.63;;;;;;;14.38;78.00;101291.03;5055108;28;20817;-68
2022/06/22 01:45:01;;;;;;;12.23;9.50;;;;;;;14.32;77.89;101298.47;5067913;28;20051;-69
2022/06/22 01:47:40;;;;;;;12.90;10.10;;;;;;;14.33;77.92;101299.28;5071256;28;20016;-68
2022/06/22 01:50:08;;;;;;;13.40;10.07;;;;;;;14.19;78.79;101297.91;5046337;28;20033;-69
2022/06/22 01:52:43;;;;;;;15.18;9.63;;;;;;;14.29;78.37;101293.53;5068836;28;20033;-69
2022/06/22 01:55:53;;;;;;;12.02;10.05;;;;;;;14.31;78.48;101294.19;5060555;28;20020;-68
2022/06/22 01:58:19;;;;;;;12.38;10.52;;;;;;;14.32;78.08;101295.84;5039760;28;20036;-68
2022/06/22 02:00:51;;;;;;;12.90;10.80;;;;;;;14.12;79.21;101302.03;5060369;28;20376;-68
2022/06/22 02:03:18;;;;;;;14.95;10.70;;;;;;;14.20;78.83;101304.78;5060867;28;20122;-67
2022/06/22 02:05:54;;;;;;;13.15;9.98;;;;;;;14.15;79.10;101312.19;5059700;28;20055;-69
2022/06/22 02:08:26;;;;;;;12.27;10.80;;;;;;;14.03;78.96;101289.81;5061652;28;20036;-68
2022/06/22 02:11:01;;;;;;;12.75;10.30;;;;;;;14.07;79.16;101288.56;5060479;28;20032;-68
2022/06/22 02:13:42;;;;;;;13.45;10.27;;;;;;;14.09;79.15;101282.25;5046870;28;20123;-68
2022/06/22 02:16:33;;;;;;;12.75;10.32;;;;;;;13.98;79.66;101265.91;5059674;28;20079;-68
2022/06/22 02:18:58;;;;;;;11.88;10.68;;;;;;;14.02;79.41;101264.69;5061994;28;20025;-68
2022/06/22 02:21:25;;;;;;;14.10;11.48;;;;;;;13.91;79.81;101268.25;5039692;28;20056;-68
2022/06/22 02:24:06;;;;;;;12.50;11.25;;;;;;;13.89;80.35;101270.19;5061588;28;20469;-68
2022/06/22 02:26:35;;;;;;;13.48;11.25;;;;;;;13.97;79.77;101272.09;5055315;28;20036;-68
2022/06/22 02:29:01;;;;;;;12.43;10.32;;;;;;;13.88;79.57;101273.75;5046765;28;20092;-69
2022/06/22 02:31:27;;;;;;;13.77;11.23;;;;;;;13.96;79.79;101280.88;5058416;28;20029;-69
2022/06/22 02:33:55;;;;;;;14.25;11.32;;;;;;;13.84;79.92;101274.97;5060437;28;20039;-68
2022/06/22 02:36:24;;;;;;;13.68;12.10;;;;;;;13.69;80.51;101258.88;5041808;28;20029;-68
2022/06/22 02:38:51;;;;;;;13.43;11.77;;;;;;;13.67;80.91;101259.97;5048168;28;20029;-69
2022/06/22 02:46:47;;;;;;;14.38;12.30;;;;;;;13.51;81.44;101255.28;5035288;28;20154;-68
2022/06/22 02:49:27;;;;;;;14.13;12.63;;;;;;;13.51;81.52;101247.47;5038918;28;20026;-68
2022/06/22 02:51:54;;;;;;;13.82;12.27;;;;;;;13.43;81.18;101242.09;5040519;28;20029;-68
2022/06/22 02:54:28;;;;;;;15.00;12.40;;;;;;;13.45;81.33;101230.59;5038660;28;20374;-68
2022/06/22 02:57:15;;;;;;;14.77;12.40;;;;;;;13.51;80.94;101218.78;5045541;28;20021;-68
2022/06/22 02:59:42;;;;;;;17.20;13.00;;;;;;;13.41;81.79;101228.38;5043496;28;20036;-68
2022/06/22 03:02:09;;;;;;;16.50;13.05;;;;;;;13.48;81.45;101213.88;5043378;28;20468;-68
2022/06/22 03:04:34;;;;;;;14.30;12.80;;;;;;;13.37;81.79;101212.19;5047465;28;20029;-69
2022/06/22 03:07:01;;;;;;;14.40;12.90;;;;;;;13.40;81.96;101216.31;5044693;28;20032;-68
2022/06/22 03:09:28;;;;;;;14.70;13.13;;;;;;;13.39;81.96;101225.09;5028863;28;20033;-68
2022/06/22 03:11:56;;;;;;;14.85;12.88;;;;;;;13.47;81.61;101225.22;5035816;28;20025;-68
2022/06/22 03:14:57;;;;;;;15.70;13.05;;;;;;;13.45;81.85;101220.16;5040940;28;20080;-69
2022/06/22 03:17:35;;;;;;;15.48;13.50;;;;;;;13.49;82.14;101225.94;5023830;28;20124;-68
2022/06/22 03:20:06;;;;;;;16.77;13.45;;;;;;;13.44;81.96;101222.91;5037090;28;20420;-68
2022/06/22 03:22:45;;;;;;;15.95;14.20;;;;;;;13.52;81.86;101228.25;5040231;28;20061;-68
2022/06/22 03:25:38;;;;;;;17.85;13.45;;;;;;;13.53;81.10;101235.13;5033478;28;20025;-68
2022/06/22 03:28:19;;;;;;;16.13;13.73;;;;;;;13.40;81.41;101237.97;5042155;28;20491;-68
2022/06/22 03:30:53;;;;;;;14.90;13.40;;;;;;;13.50;81.43;101264.88;5049975;28;20058;-68
2022/06/22 03:33:29;;;;;;;16.95;13.68;;;;;;;13.51;81.02;101263.09;5028521;28;20033;-69
2022/06/22 03:36:00;;;;;;;15.98;13.93;;;;;;;13.46;81.37;101262.66;5043344;28;20124;-68
2022/06/22 03:38:34;;;;;;;17.63;13.95;;;;;;;13.44;81.10;101272.41;5042409;28;20544;-68
2022/06/22 03:41:05;;;;;;;14.82;13.30;;;;;;;13.40;81.77;101273.63;5040868;28;20111;-68
2022/06/22 03:43:55;;;;;;;15.57;13.98;;;;;;;13.47;80.74;101270.34;5039426;28;20032;-69
2022/06/22 03:46:24;;;;;;;16.20;14.60;;;;;;;13.38;81.26;101270.34;5040636;28;20029;-68
2022/06/22 03:49:08;;;;;;;17.60;14.57;;;;;;;13.29;81.97;101254.53;5030176;28;20067;-68
2022/06/22 03:51:47;;;;;;;15.38;13.82;;;;;;;13.32;81.90;101250.03;5029850;28;20116;-69
2022/06/22 03:54:27;;;;;;;16.02;14.43;;;;;;;13.36;81.85;101254.00;5028544;28;20381;-68
2022/06/22 03:56:57;;;;;;;16.55;14.85;;;;;;;13.24;82.19;101243.69;5031247;28;20151;-68
2022/06/22 03:59:24;;;;;;;18.58;15.07;;;;;;;13.14;82.11;101248.00;5030280;28;20025;-69
2022/06/22 04:01:50;;;;;;;16.65;14.88;;;;;;;13.06;82.72;101234.81;5027880;28;20024;-68
2022/06/22 04:04:16;;;;;;;16.77;15.07;;;;;;;13.10;83.13;101241.41;5032142;28;20038;-68
2022/06/22 04:06:48;;;;;;;16.48;14.77;;;;;;;13.15;82.41;101247.06;5027688;28;20025;-67
2022/06/22 04:09:19;;;;;;;15.85;14.05;;;;;;;13.19;82.32;101240.63;5011705;28;20071;-67
2022/06/22 04:12:11;;;;;;;19.65;15.98;;;;;;;13.11;83.24;101243.06;5033299;28;20449;-68
2022/06/22 04:14:53;;;;;;;17.10;15.40;;;;;;;13.19;82.84;101240.63;5025921;28;20056;-67
2022/06/22 04:17:42;;;;;;;17.70;14.85;;;;;;;13.24;82.42;101229.81;5012881;28;20095;-67
2022/06/22 04:20:17;;;;;;;16.33;14.70;;;;;;;13.13;82.84;101235.97;5038183;28;20508;-67
2022/06/22 04:22:47;;;;;;;17.30;15.50;;;;;;;13.03;83.69;101214.25;5035665;28;20028;-67
2022/06/22 04:25:37;;;;;;;17.08;15.30;;;;;;;13.18;83.30;101231.16;5031625;28;20486;-68
2022/06/22 04:28:09;;;;;;;17.52;15.60;;;;;;;13.12;83.69;101234.28;5028172;28;20046;-68
2022/06/22 04:30:40;;;;;;;17.83;15.93;;;;;;;13.12;83.68;101231.69;5038704;28;20040;-66
2022/06/22 04:33:09;;;;;;;16.73;14.90;;;;;;;13.22;83.46;101234.34;5043858;28;20036;-67
2022/06/22 04:35:43;;;;;;;18.83;15.52;;;;;;;13.15;83.54;101233.22;5037227;28;20423;-67
2022/06/22 04:38:08;;;;;;;16.73;14.93;;;;;;;13.36;82.66;101235.75;5025304;28;20025;-67
2022/06/22 04:40:49;;;;;;;18.65;15.25;;;;;;;13.27;83.38;101243.44;5043424;28;20037;-67
2022/06/22 04:43:15;;;;;;;17.10;15.50;;;;;;;13.34;83.51;101237.69;5042107;28;20401;-67
2022/06/22 04:45:43;;;;;;;18.73;16.80;;;;;;;13.34;84.00;101233.28;5039008;28;20036;-67
2022/06/22 04:48:18;;;;;;;18.05;16.17;;;;;;;13.39;83.39;101240.72;5038260;28;20483;-67
2022/06/22 04:50:45;;;;;;;16.92;15.20;;;;;;;13.37;83.69;101243.47;5040253;28;20028;-66
2022/06/22 04:53:37;;;;;;;17.27;15.48;;;;;;;13.45;83.37;101255.81;5043498;28;20047;-67
2022/06/22 04:56:09;;;;;;;17.48;15.52;;;;;;;13.51;83.82;101255.28;5034771;28;20071;-67
2022/06/22 04:58:51;;;;;;;17.25;15.48;;;;;;;13.54;83.32;101255.03;5041562;28;20025;-67
2022/06/22 05:01:29;;;;;;;18.23;16.05;;;;;;;13.54;83.57;101260.25;5047502;28;20477;-68
2022/06/22 05:03:57;;;;;;;20.30;16.35;;;;;;;13.58;83.39;101261.59;5041850;28;20025;-66
2022/06/22 05:06:53;;;;;;;19.10;16.63;;;;;;;13.62;83.63;101267.38;5043458;28;20033;-67
2022/06/22 05:09:26;;;;;;;18.05;16.13;;;;;;;13.70;82.77;101283.16;5036797;28;20151;-66
2022/06/22 05:11:52;;;;;;;19.83;16.27;;;;;;;13.71;83.80;101277.84;5032005;28;20629;-68
2022/06/22 05:14:26;;;;;;;18.52;16.67;;;;;;;13.72;83.84;101284.69;5030649;28;20477;-69
2022/06/22 05:17:14;;;;;;;19.40;16.75;;;;;;;13.84;83.01;101281.97;5039202;28;20114;-68
2022/06/22 05:19:46;;;;;;;19.10;17.17;;;;;;;13.79;83.74;101283.19;5037030;28;20512;-68
2022/06/22 05:22:14;;;;;;;17.88;16.08;;;;;;;13.90;82.93;101281.44;5033215;28;20033;-69
2022/06/22 05:24:44;;;;;;;18.33;16.52;;;;;;;13.93;82.69;101281.97;5033807;28;20024;-68
2022/06/22 05:27:13;;;;;;;17.65;15.90;;;;;;;13.90;83.17;101290.06;5028931;28;20416;-68
2022/06/22 05:29:43;;;;;;;17.65;15.85;;;;;;;13.99;83.02;101304.06;5033030;28;20039;-68
2022/06/22 05:32:14;;;;;;;17.75;15.95;;;;;;;14.08;82.45;101309.31;5043130;28;20515;-68
2022/06/22 05:34:44;;;;;;;17.90;16.00;;;;;;;14.13;82.81;101314.13;5030935;28;20021;-68
2022/06/22 05:37:33;;;;;;;18.58;16.63;;;;;;;14.21;82.69;101303.00;5034213;28;20036;-69
2022/06/22 05:39:59;;;;;;;18.17;16.17;;;;;;;14.30;82.00;101315.22;5023729;28;20028;-69
2022/06/22 05:42:26;;;;;;;19.10;16.08;;;;;;;14.45;81.55;101318.22;5032382;28;20076;-69
2022/06/22 05:44:53;;;;;;;19.35;15.88;;;;;;;14.45;80.97;101313.00;5025044;28;20025;-71
2022/06/22 05:47:31;;;;;;;17.67;15.77;;;;;;;14.50;81.50;101314.28;5032211;28;20083;-68
2022/06/22 05:50:30;;;;;;;18.05;16.17;;;;;;;14.55;80.82;101313.84;5036656;28;20492;-69
2022/06/22 05:53:06;;;;;;;17.20;15.45;;;;;;;14.59;80.38;101318.66;5040145;28;20036;-68
2022/06/22 05:55:55;;;;;;;17.88;16.13;;;;;;;14.71;80.30;101313.31;5035709;28;20112;-68
2022/06/22 05:58:59;;;;;;;17.83;16.02;;;;;;;14.76;80.43;101322.34;5019270;28;20058;-68
2022/06/22 06:01:27;;;;;;;18.92;17.10;;;;;;;14.81;79.93;101314.94;5038354;28;20045;-69
2022/06/22 06:04:02;;;;;;;17.90;16.00;;;;;;;14.84;79.92;101319.03;5042119;28;20094;-69
2022/06/22 06:06:34;;;;;;;17.77;15.95;;;;;;;14.88;79.81;101326.44;5011932;28;20353;-68
2022/06/22 06:09:04;;;;;;;17.55;15.52;;;;;;;14.94;79.32;101325.06;5034651;28;20025;-68
2022/06/22 06:11:40;;;;;;;18.17;16.05;;;;;;;14.93;79.62;101306.94;5013110;28;20357;-69
2022/06/22 06:14:13;;;;;;;17.08;15.38;;;;;;;14.99;79.57;101298.53;5028330;28;20018;-70
2022/06/22 06:16:49;;;;;;;16.52;14.93;;;;;;;15.19;79.26;101313.16;5033456;28;20474;-69
2022/06/22 06:19:19;;;;;;;17.13;15.43;;;;;;;15.30;79.08;101309.53;5062012;28;20033;-68
2022/06/22 06:21:45;;;;;;;16.83;15.05;;;;;;;15.34;78.51;101306.50;5059880;28;20021;-68
2022/06/22 06:24:33;;;;;;;16.77;15.05;;;;;;;15.46;78.18;101311.53;5043500;28;20107;-68
2022/06/22 06:27:34;;;;;;;16.88;15.18;;;;;;;15.60;77.68;101316.31;5045291;28;20029;-67
2022/06/22 06:30:21;;;;;;;15.50;14.00;;;;;;;15.68;77.02;101318.22;5043897;28;20460;-68
2022/06/22 06:32:59;;;;;;;16.45;14.73;;;;;;;15.76;76.60;101319.09;5046485;28;20119;-69
2022/06/22 06:35:31;;;;;;;17.83;15.93;;;;;;;15.73;76.18;101327.25;5042685;28;20060;-68
2022/06/22 06:38:12;;;;;;;17.83;15.45;;;;;;;15.79;76.91;101326.69;5043963;28;20040;-69
2022/06/22 06:40:48;;;;;;;17.10;15.43;;;;;;;15.90;75.85;101329.09;5035736;28;20025;-68
2022/06/22 06:43:14;;;;;;;16.77;15.23;;;;;;;16.03;75.99;101322.66;5035434;28;20167;-69
2022/06/22 06:45:41;;;;;;;17.00;15.18;;;;;;;16.03;75.32;101309.59;5030210;28;20414;-69
2022/06/22 06:48:13;;;;;;;17.10;15.35;;;;;;;16.25;74.49;101317.00;5033392;28;20025;-68
2022/06/22 06:50:42;;;;;;;16.90;15.05;;;;;;;16.32;75.59;101323.25;5033931;28;20040;-68
2022/06/22 06:53:10;;;;;;;;;;;;;;;16.44;75.32;101311.59;5046532;28;20045;-68
2022/06/22 06:56:06;;;;;;;17.60;14.43;;;;;;;16.40;74.49;101318.13;5041706;28;19951;-68
2022/06/22 06:58:37;;;;;;;16.85;15.20;;;;;;;16.50;74.33;101309.34;5042036;28;20020;-69
2022/06/22 07:01:03;;;;;;;16.02;14.43;;;;;;;16.60;73.10;101310.06;5045348;28;20123;-68
2022/06/22 07:03:36;;;;;;;16.98;15.27;;;;;;;16.69;74.59;101298.69;5044419;28;20032;-69
2022/06/22 07:06:05;;;;;;;16.92;14.90;;;;;;;16.73;73.72;101310.53;5054576;28;20025;-69
2022/06/22 07:08:36;;;;;;;16.60;15.00;;;;;;;16.80;73.20;101300.25;5061355;28;20357;-68
2022/06/22 07:11:14;;;;;;;16.02;14.23;;;;;;;17.02;73.36;101294.47;5053080;28;20489;-69
2022/06/22 07:13:50;;;;;;;16.52;14.73;;;;;;;17.09;73.06;101297.28;5041522;28;20552;-68
2022/06/22 07:16:22;;;;;;;15.90;14.38;;;;;;;17.27;73.17;101302.50;5046671;28;20032;-68
2022/06/22 07:19:00;;;;;;;14.95;13.45;;;;;;;17.34;71.42;101304.31;5045330;28;20033;-69
2022/06/22 07:21:48;;;;;;;15.70;14.18;;;;;;;17.40;72.32;101287.94;5045171;28;20028;-69
2022/06/22 07:24:26;;;;;;;16.45;14.00;;;;;;;17.57;70.83;101309.00;5045165;28;20036;-68
2022/06/22 07:27:19;;;;;;;14.30;12.80;;;;;;;17.65;70.25;101322.13;5047595;28;20554;-68
2022/06/22 07:29:59;;;;;;;14.75;12.65;;;;;;;17.74;69.05;101311.53;5055896;28;20036;-69
2022/06/22 07:32:50;;;;;;;15.90;13.23;;;;;;;17.85;69.08;101310.41;5048431;28;20040;-69
2022/06/22 07:35:18;;;;;;;14.55;13.05;;;;;;;17.93;69.91;101299.09;5047845;28;20087;-68
2022/06/22 07:38:04;;;;;;;14.48;12.98;;;;;;;18.04;70.22;101296.16;5045988;28;20025;-68
2022/06/22 07:40:30;;;;;;;13.88;12.38;;;;;;;18.26;69.59;101289.47;5015390;28;20079;-68
2022/06/22 07:42:58;;;;;;;13.80;11.77;;;;;;;18.39;69.42;101283.72;5036341;28;20075;-68
2022/06/22 07:45:25;;;;;;;13.98;12.02;;;;;;;18.42;67.79;101284.22;5043622;28;20033;-68
2022/06/22 07:48:04;;;;;;;12.20;10.90;;;;;;;18.52;68.14;101290.13;5037872;28;20512;-68
2022/06/22 07:50:35;;;;;;;12.05;10.10;;;;;;;18.51;66.48;101288.44;5027788;28;20028;-69
2022/06/22 07:53:17;;;;;;;12.32;9.77;;;;;;;18.57;66.15;101272.03;5043582;28;20104;-69
2022/06/22 07:56:21;;;;;;;11.20;8.20;;;;;;;18.71;65.25;101277.63;5041608;28;20033;-69
2022/06/22 07:58:54;;;;;;;10.68;8.13;;;;;;;18.73;63.40;101276.47;4943019;28;20158;-68
2022/06/22 08:01:29;;;;;;;11.20;8.75;;;;;;;18.94;64.34;101272.50;4955363;28;20116;-69
2022/06/22 08:04:03;;;;;;;13.05;9.23;;;;;;;19.07;65.53;101272.78;4943110;28;20058;-68
2022/06/22 08:06:35;;;;;;;11.50;8.48;;;;;;;19.22;65.52;101270.25;4952811;28;20042;-68
2022/06/22 08:09:21;;;;;;;8.90;7.40;;;;;;;19.31;64.80;101274.47;4931226;28;20443;-68
2022/06/22 08:11:57;;;;;;;11.80;8.40;;;;;;;19.43;63.08;101278.38;4947245;28;20043;-68
2022/06/22 08:14:35;;;;;;;9.52;7.45;;;;;;;19.53;63.82;101272.91;4948716;28;20035;-67
2022/06/22 08:17:01;;;;;;;;;;;;;;;19.63;62.43;101279.63;4949237;28;20047;-68
2022/06/22 08:19:29;;;;;;;8.95;6.97;;;;;;;19.54;61.16;101270.09;4944427;28;19928;-68
2022/06/22 08:21:59;;;;;;;10.10;6.20;;;;;;;19.59;59.48;101278.31;4957512;28;20529;-68
2022/06/22 08:24:27;;;;;;;9.23;6.45;;;;;;;19.68;61.08;101280.91;4948971;28;20073;-68
2022/06/22 08:26:55;;;;;;;8.15;6.05;;;;;;;19.73;61.38;101270.69;4951946;28;20139;-68
2022/06/22 08:29:24;;;;;;;9.60;5.70;;;;;;;19.99;59.52;101279.03;4946765;28;20101;-68
2022/06/22 08:31:58;;;;;;;7.53;5.15;;;;;;;19.94;58.18;101289.28;4945357;28;20027;-68
2022/06/22 08:34:32;;;;;;;9.77;5.30;;;;;;;20.12;58.59;101278.44;4965098;28;20045;-68
2022/06/22 08:37:06;;;;;;;8.32;5.10;;;;;;;20.16;57.74;101285.81;5029423;28;20025;-69
2022/06/22 08:39:57;;;;;;;8.32;4.90;;;;;;;20.30;57.76;101286.03;5043425;28;20381;-68
2022/06/22 08:42:42;;;;;;;6.72;4.28;;;;;;;20.40;56.50;101286.63;5025320;28;20033;-68
2022/06/22 08:45:10;;;;;;;7.88;4.05;;;;;;;20.51;55.67;101283.59;5025604;28;20079;-68
2022/06/22 08:47:41;;;;;;;8.57;4.28;;;;;;;20.54;54.10;101283.25;5037652;28;20033;-69
2022/06/22 08:50:19;;;;;;;7.55;3.95;;;;;;;20.58;56.09;101279.22;5028084;28;20029;-69
2022/06/22 08:53:17;;;;;;;7.38;4.22;;;;;;;20.78;55.55;101286.63;5031244;28;20094;-68
2022/06/22 08:55:59;;;;;;;6.38;4.00;;;;;;;20.79;52.92;101285.63;5028618;28;20017;-68
2022/06/22 08:58:53;;;;;;;6.85;3.75;;;;;;;20.72;52.41;101290.00;5032971;28;20448;-68
2022/06/22 09:01:40;;;;;;;8.45;4.03;;;;;;;20.88;52.95;101289.81;5027798;28;20069;-68
2022/06/22 09:04:38;;;;;;;8.05;3.85;;;;;;;21.08;54.87;101287.44;5027807;28;20033;-68
2022/06/22 09:07:15;;;;;;;6.35;3.55;;;;;;;21.19;52.91;101290.44;5039471;28;20051;-69
2022/06/22 09:10:03;;;;;;;6.00;3.85;;;;;;;21.18;51.79;101286.16;5042071;28;20114;-69
2022/06/22 09:12:38;;;;;;;5.90;3.47;;;;;;;21.29;52.42;101286.72;5034971;28;20029;-68
2022/06/22 09:15:29;;;;;;;7.15;3.60;;;;;;;21.16;50.91;101287.34;5032143;28;20062;-69
2022/06/22 09:18:20;;;;;;;7.10;3.17;;;;;;;21.49;52.15;101298.34;5033328;28;20070;-68
2022/06/22 09:20:53;;;;;;;5.97;2.55;;;;;;;21.63;51.53;101289.59;5028760;28;20059;-68
2022/06/22 09:23:22;;;;;;;7.50;2.80;;;;;;;21.50;49.60;101288.59;5044615;28;20584;-68
2022/06/22 09:25:50;;;;;;;;;;;;;;;21.84;52.12;101285.31;5034982;28;20045;-68
2022/06/22 09:28:25;;;;;;;5.95;2.70;;;;;;;21.87;50.23;101282.31;5027144;28;19921;-70
2022/06/22 09:31:21;;;;;;;6.43;3.40;;;;;;;21.82;50.65;101282.88;5037767;28;20029;-68
2022/06/22 09:33:58;;;;;;;4.75;2.72;;;;;;;21.86;49.38;101278.03;5036661;28;20025;-68
2022/06/22 09:36:41;;;;;;;5.47;2.73;;;;;;;22.13;48.50;101276.47;5026603;28;20044;-68
2022/06/22 09:39:25;;;;;;;5.68;2.65;;;;;;;22.24;50.30;101282.06;5044151;28;20111;-69
2022/06/22 09:42:18;;;;;;;6.93;3.10;;;;;;;22.32;48.14;101282.94;5044985;28;20515;-69
2022/06/22 09:44:52;;;;;;;6.15;2.65;;;;;;;22.36;47.67;101284.19;5042414;28;20033;-69
2022/06/22 09:47:23;;;;;;;8.07;2.55;;;;;;;22.41;48.29;101289.72;5036519;28;20043;-68
2022/06/22 09:50:00;;;;;;;5.30;2.30;;;;;;;22.48;47.93;101290.56;5045824;28;20082;-69
2022/06/22 09:52:58;;;;;;;6.30;2.13;;;;;;;22.55;48.01;101299.41;5039637;28;20102;-68
2022/06/22 09:59:03;;;;;;;5.57;2.55;;;;;;;22.62;47.04;101289.69;5029649;28;21402;-70
2022/06/22 10:01:34;;;;;;;5.03;2.45;;;;;;;22.62;45.60;101286.22;5035990;28;20033;-68
2022/06/22 10:04:28;;;;;;;7.97;2.33;;;;;;;22.70;47.11;101286.88;5035175;28;20040;-68
2022/06/22 10:06:54;;;;;;;4.80;1.92;;;;;;;22.79;43.29;101306.88;5034194;28;20132;-68
2022/06/22 10:09:50;;;;;;;5.97;2.00;;;;;;;22.99;43.62;101311.50;5037297;28;20032;-69
2022/06/22 10:12:25;;;;;;;4.15;1.90;;;;;;;22.84;41.03;101314.22;5033547;28;20029;-69
2022/06/22 10:15:28;;;;;;;4.13;1.80;;;;;;;22.90;42.54;101302.91;5034690;28;20476;-68
2022/06/22 10:18:02;;;;;;;5.57;2.38;;;;;;;23.00;40.59;101302.56;5038540;28;20037;-69
2022/06/22 10:20:42;;;;;;;4.18;2.00;;;;;;;23.06;42.29;101296.50;5034023;28;20033;-68
2022/06/22 10:23:11;;;;;;;6.68;2.15;;;;;;;23.19;43.22;101296.53;5036917;28;20056;-68
2022/06/22 10:25:54;;;;;;;3.42;1.80;;;;;;;23.46;42.49;101291.38;5035652;28;20021;-69
2022/06/22 10:28:57;;;;;;;4.95;2.10;;;;;;;23.53;44.20;101277.13;5034299;28;20055;-69
2022/06/22 10:31:52;;;;;;;6.47;2.40;;;;;;;23.32;41.99;101287.84;5030295;28;20029;-69
2022/06/22 10:34:47;;;;;;;4.43;2.05;;;;;;;23.38;42.11;101283.59;5016360;28;20037;-69
2022/06/22 10:37:46;;;;;;;3.25;1.60;;;;;;;23.46;39.67;101286.06;5036101;28;20032;-68
2022/06/22 10:46:44;;;;;;;3.10;1.80;;;;;;;23.50;39.11;101266.09;5040698;28;20075;-68
2022/06/22 10:49:56;;;;;;;5.40;1.80;;;;;;;23.67;41.53;101267.41;5028708;28;20033;-68
2022/06/22 10:52:29;;;;;;;3.97;1.60;;;;;;;24.01;40.47;101257.66;4998091;28;20045;-68
2022/06/22 10:55:13;;;;;;;2.83;1.50;;;;;;;23.96;38.23;101257.47;5039404;28;20067;-68
2022/06/22 10:57:56;;;;;;;2.80;1.70;;;;;;;23.96;38.81;101260.09;5029863;28;20022;-68
2022/06/22 11:00:43;;;;;;;5.60;1.85;;;;;;;24.00;37.74;101266.63;5025060;28;20033;-68
2022/06/22 11:03:33;;;;;;;5.03;1.77;;;;;;;24.13;38.16;101268.47;5039075;28;20024;-68
2022/06/22 11:06:20;;;;;;;5.32;1.63;;;;;;;24.20;39.69;101272.78;5046522;28;20413;-70
2022/06/22 11:09:07;;;;;;;5.40;2.07;;;;;;;23.98;36.97;101263.38;5038619;28;20471;-69
2022/06/22 11:11:44;;;;;;;2.42;1.67;;;;;;;24.31;40.40;101256.22;5027794;28;20113;-69
2022/06/22 11:14:12;;;;;;;4.53;1.92;;;;;;;24.41;38.75;101261.16;5029645;28;20056;-69
2022/06/22 11:16:37;;;;;;;;;;;;;;;24.60;39.50;101259.50;5020872;28;20487;-69
2022/06/22 11:19:30;;;;;;;6.33;1.90;;;;;;;24.46;38.63;101260.53;5039422;28;20003;-69
2022/06/22 11:22:35;;;;;;;3.28;1.60;;;;;;;24.30;39.68;101251.94;5021081;28;20425;-68
2022/06/22 11:31:45;;;;;;;4.10;1.58;;;;;;;24.53;37.84;101256.03;5043519;28;20028;-68
2022/06/22 11:34:14;;;;;;;4.10;1.40;;;;;;;24.48;36.72;101250.53;5034156;28;20044;-70
2022/06/22 11:37:04;;;;;;;3.83;1.48;;;;;;;24.64;37.94;101248.25;5030638;28;20409;-68
2022/06/22 11:39:54;;;;;;;5.65;1.50;;;;;;;24.83;34.46;101246.59;5027458;28;20548;-69
2022/06/22 11:42:23;;;;;;;4.47;1.40;;;;;;;24.64;33.88;101247.44;5040168;28;20074;-68
2022/06/22 11:48:18;;;;;;;2.03;1.20;;;;;;;24.61;35.81;101238.09;5032229;28;20400;-69
2022/06/22 11:51:17;;;;;;;2.55;1.40;;;;;;;24.83;36.35;101240.44;5035656;28;20025;-69
2022/06/22 11:54:01;;;;;;;3.08;1.42;;;;;;;24.71;34.49;101242.94;5045787;28;20437;-68
2022/06/22 11:56:29;;;;;;;2.92;1.40;;;;;;;24.54;34.18;101247.88;5046173;28;20029;-68
2022/06/22 11:59:06;;;;;;;2.47;1.40;;;;;;;24.67;35.30;101247.03;5009177;28;20029;-69
2022/06/22 12:02:13;;;;;;;3.95;1.45;;;;;;;24.79;34.22;101253.34;5024075;28;20490;-69
2022/06/22 12:04:51;;;;;;;2.33;1.35;;;;;;;24.94;35.47;101253.06;4941451;28;20039;-68
2022/06/22 12:07:59;;;;;;;4.43;1.45;;;;;;;25.05;33.84;101254.25;4943483;28;20333;-70
2022/06/22 12:10:48;;;;;;;2.65;1.50;;;;;;;25.16;33.60;101246.47;4946126;28;20597;-69
2022/06/22 12:13:28;;;;;;;5.13;1.40;;;;;;;25.24;34.95;101242.78;4941531;28;20046;-69
2022/06/22 12:16:08;;;;;;;4.50;1.63;;;;;;;25.31;32.48;101243.56;4935979;28;20147;-68
2022/06/22 12:19:08;;;;;;;4.78;1.67;;;;;;;25.45;34.29;101246.13;4951313;28;20038;-69
2022/06/22 12:22:00;;;;;;;4.55;1.70;;;;;;;25.09;32.03;101236.94;4879995;29;20055;-69
2022/06/22 12:24:54;;;;;;;3.50;1.40;;;;;;;25.26;33.19;101235.41;4883832;29;20431;-70
2022/06/22 12:27:31;;;;;;;3.80;1.40;;;;;;;25.29;32.06;101240.31;4885329;29;20067;-69
2022/06/22 12:30:15;;;;;;;2.53;1.40;;;;;;;25.32;32.86;101226.59;4878907;29;20039;-69
2022/06/22 12:32:55;;;;;;;3.65;1.40;;;;;;;25.40;31.97;101237.00;4886648;29;20045;-68